Time;durP1;ratioP1;P1;durP2;ratioP2;P2;SDS_P1;SDS_P2;PMS_P1;PMS_P2;Temp;Humidity;BMP_temperature;BMP_pressure;BME280_temperature;BME280_humidity;BME280_pressure;Samples;Min_cycle;Max_cycle;Signal;HPM_P1;HPM_P2
2023/11/05 00:02:17;;;;;;;0.40;0.10;;;;;;;9.71;71.26;93490.00;6277914;22;20406;-80
2023/11/05 00:04:44;;;;;;;0.28;0.10;;;;;;;9.71;71.87;93469.16;6276872;22;20404;-80
2023/11/05 00:07:12;;;;;;;0.10;0.10;;;;;;;9.70;71.88;93480.59;6277848;22;20408;-80
2023/11/05 00:09:40;;;;;;;0.17;0.10;;;;;;;9.71;72.64;93484.78;6277826;22;20020;-79
2023/11/05 00:12:09;;;;;;;0.20;0.10;;;;;;;9.70;72.82;93478.00;6277288;22;20043;-80
2023/11/05 00:14:37;;;;;;;0.10;0.10;;;;;;;9.69;73.16;93469.41;6299495;22;20028;-80
2023/11/05 00:17:04;;;;;;;1.40;0.20;;;;;;;9.68;72.10;93454.03;6302337;22;20020;-80
2023/11/05 00:19:32;;;;;;;1.00;0.10;;;;;;;9.67;72.72;93435.06;6288145;22;20027;-80
2023/11/05 00:22:00;;;;;;;0.10;0.10;;;;;;;9.68;73.28;93444.41;6278535;22;20019;-80
2023/11/05 00:24:28;;;;;;;0.10;0.10;;;;;;;9.70;73.84;93457.19;6277489;22;20016;-80
2023/11/05 00:26:55;;;;;;;0.82;0.38;;;;;;;9.70;74.35;93447.53;6278000;22;20027;-80
2023/11/05 00:29:24;;;;;;;0.68;0.20;;;;;;;9.69;73.06;93445.22;6277239;22;20016;-80
2023/11/05 00:31:53;;;;;;;0.20;0.08;;;;;;;9.66;73.20;93437.91;6277623;22;20015;-80
2023/11/05 00:34:20;;;;;;;0.30;0.20;;;;;;;9.69;74.04;93442.63;6276879;22;20026;-80
2023/11/05 00:36:48;;;;;;;0.25;0.13;;;;;;;9.67;73.58;93447.28;6277782;22;20047;-80
2023/11/05 00:39:16;;;;;;;0.47;0.20;;;;;;;9.68;74.01;93441.03;6276678;22;20027;-80
2023/11/05 00:41:44;;;;;;;1.40;0.10;;;;;;;9.67;74.91;93429.84;6277293;22;20081;-80
2023/11/05 00:44:12;;;;;;;0.00;0.00;;;;;;;9.67;72.82;93426.47;6277286;22;20457;-80
2023/11/05 00:46:41;;;;;;;0.40;0.10;;;;;;;9.66;71.95;93414.47;6277959;22;20028;-80
2023/11/05 00:49:10;;;;;;;0.65;0.10;;;;;;;9.65;71.63;93411.09;6277758;22;20122;-80
2023/11/05 00:51:38;;;;;;;0.20;0.20;;;;;;;9.64;71.67;93413.94;6277209;22;20038;-80
2023/11/05 00:54:06;;;;;;;0.40;0.20;;;;;;;9.63;71.42;93410.56;6277079;22;20020;-80
2023/11/05 00:56:33;;;;;;;0.13;0.10;;;;;;;9.62;72.96;93413.41;6277677;22;20030;-80
2023/11/05 00:59:02;;;;;;;0.28;0.10;;;;;;;9.62;74.03;93400.41;6277534;22;20388;-79
2023/11/05 01:01:30;;;;;;;0.40;0.10;;;;;;;9.61;74.61;93393.66;6277575;22;20074;-80
2023/11/05 01:03:59;;;;;;;0.57;0.10;;;;;;;9.59;72.61;93398.31;6294240;22;20020;-80
2023/11/05 01:06:27;;;;;;;0.05;0.05;;;;;;;9.57;72.70;93400.38;6280956;22;20392;-81
2023/11/05 01:08:54;;;;;;;1.33;0.20;;;;;;;9.56;74.15;93394.41;6279876;22;20053;-80
2023/11/05 01:11:22;;;;;;;0.63;0.20;;;;;;;9.58;75.40;93387.13;6278698;22;20051;-80
2023/11/05 01:13:50;;;;;;;0.82;0.10;;;;;;;9.55;74.71;93381.63;6278690;22;20027;-80
2023/11/05 01:16:18;;;;;;;0.30;0.30;;;;;;;9.53;73.91;93373.31;6279421;22;20019;-80
2023/11/05 01:18:46;;;;;;;2.00;0.40;;;;;;;9.49;74.04;93363.41;6279177;22;20023;-80
2023/11/05 01:21:15;;;;;;;0.90;0.63;;;;;;;9.47;72.54;93364.72;6279226;22;20457;-80
2023/11/05 01:23:43;;;;;;;0.60;0.10;;;;;;;9.43;72.53;93359.22;6279586;22;20342;-80
2023/11/05 01:26:11;;;;;;;0.70;0.47;;;;;;;9.42;73.50;93355.06;6278511;22;20016;-80
2023/11/05 01:28:40;;;;;;;4.85;3.33;;;;;;;9.42;73.34;93351.66;6279728;22;20020;-80
2023/11/05 01:31:08;;;;;;;6.57;3.38;;;;;;;9.39;72.40;93339.94;6279333;22;20077;-80
2023/11/05 01:33:36;;;;;;;6.18;3.20;;;;;;;9.38;73.53;93346.22;6278603;22;20023;-81
2023/11/05 01:36:04;;;;;;;0.52;0.40;;;;;;;9.38;72.96;93361.00;6285342;22;20392;-80
2023/11/05 01:38:34;;;;;;;0.40;0.20;;;;;;;9.37;74.52;93359.47;6280241;22;20460;-80
2023/11/05 01:41:02;;;;;;;0.65;0.20;;;;;;;9.36;73.95;93361.28;6278958;22;20366;-80
2023/11/05 01:43:30;;;;;;;0.50;0.10;;;;;;;9.33;73.94;93369.56;6278463;22;20090;-80
2023/11/05 01:45:59;;;;;;;0.40;0.05;;;;;;;9.31;73.57;93358.63;6278068;22;20422;-80
2023/11/05 01:48:27;;;;;;;0.20;0.10;;;;;;;9.31;73.92;93363.06;6279214;22;20023;-80
2023/11/05 01:50:56;;;;;;;0.28;0.20;;;;;;;9.28;73.85;93346.94;6278669;22;20043;-80
2023/11/05 01:53:24;;;;;;;0.22;0.20;;;;;;;9.27;73.75;93336.75;6278161;22;20043;-80
2023/11/05 01:55:54;;;;;;;2.05;0.20;;;;;;;9.25;74.07;93342.25;6277767;22;20470;-80
2023/11/05 01:58:22;;;;;;;1.40;0.20;;;;;;;9.24;75.28;93334.69;6278979;22;20484;-80
2023/11/05 02:00:54;;;;;;;1.08;0.47;;;;;;;9.23;74.66;93328.72;6279085;22;20020;-80
2023/11/05 02:03:21;;;;;;;0.20;0.13;;;;;;;9.21;73.84;93319.59;6281501;22;20023;-80
2023/11/05 02:05:49;;;;;;;0.45;0.10;;;;;;;9.20;72.15;93318.03;6279711;22;20403;-80
2023/11/05 02:08:17;;;;;;;0.13;0.10;;;;;;;9.18;72.67;93314.88;6279524;22;20073;-80
2023/11/05 02:10:46;;;;;;;0.40;0.40;;;;;;;9.17;72.26;93313.34;6280525;22;20396;-80
2023/11/05 02:13:15;;;;;;;1.08;0.10;;;;;;;9.16;71.90;93301.34;6279218;22;20019;-81
2023/11/05 02:15:45;;;;;;;2.10;0.50;;;;;;;9.14;72.65;93309.44;6279448;22;20480;-80
2023/11/05 02:18:13;;;;;;;1.05;0.17;;;;;;;9.14;72.99;93311.22;6279473;22;20074;-80
2023/11/05 02:20:41;;;;;;;0.73;0.20;;;;;;;9.13;71.66;93307.06;6280775;22;20257;-80
2023/11/05 02:23:16;;;;;;;1.13;0.52;;;;;;;9.11;71.38;93298.75;6278634;22;20472;-80
2023/11/05 02:25:44;;;;;;;0.20;0.20;;;;;;;9.09;71.79;93304.19;6278566;22;20019;-80
2023/11/05 02:28:12;;;;;;;2.15;0.35;;;;;;;9.09;72.46;93301.59;6279294;22;20035;-80
2023/11/05 02:30:40;;;;;;;0.52;0.20;;;;;;;9.07;72.99;93299.25;6278834;22;20026;-80
2023/11/05 02:33:08;;;;;;;0.20;0.10;;;;;;;9.04;73.92;93302.34;6278342;22;20030;-81
2023/11/05 02:35:36;;;;;;;0.82;0.25;;;;;;;9.02;73.50;93288.81;6277961;22;20019;-80
2023/11/05 02:38:03;;;;;;;0.68;0.30;;;;;;;9.01;72.29;93281.28;6278628;22;20042;-80
2023/11/05 02:40:32;;;;;;;0.90;0.47;;;;;;;9.00;73.62;93277.09;6279166;22;20051;-81
2023/11/05 02:43:00;;;;;;;0.40;0.20;;;;;;;9.01;74.00;93281.28;6278848;22;20019;-81
2023/11/05 02:45:28;;;;;;;1.20;0.60;;;;;;;8.98;72.84;93279.94;6279152;22;20027;-80
2023/11/05 02:47:55;;;;;;;2.08;0.75;;;;;;;8.97;72.91;93278.41;6278590;22;20032;-80
2023/11/05 02:50:23;;;;;;;0.60;0.38;;;;;;;8.95;72.76;93280.47;6279822;22;20026;-80
2023/11/05 02:52:51;;;;;;;3.58;1.20;;;;;;;8.94;72.93;93283.31;6278868;22;20484;-80
2023/11/05 02:55:19;;;;;;;0.60;0.43;;;;;;;8.93;71.60;93272.13;6279418;22;20409;-80
2023/11/05 02:57:48;;;;;;;2.17;1.20;;;;;;;8.92;70.52;93283.59;6279328;22;20024;-80
2023/11/05 03:00:16;;;;;;;3.72;1.25;;;;;;;8.91;70.71;93263.03;6278506;22;20073;-81
2023/11/05 03:02:44;;;;;;;3.13;0.80;;;;;;;8.94;72.09;93265.91;6279043;22;20023;-81
2023/11/05 03:05:11;;;;;;;4.40;1.42;;;;;;;8.94;72.88;93265.13;6278225;22;20048;-81
2023/11/05 03:07:39;;;;;;;6.18;2.85;;;;;;;8.94;71.39;93252.13;6278610;22;20016;-81
2023/11/05 03:10:08;;;;;;;3.42;1.42;;;;;;;8.96;73.49;93244.84;6278469;22;20031;-81
2023/11/05 03:12:36;;;;;;;2.30;1.02;;;;;;;8.96;72.10;93244.84;6277734;22;20087;-81
2023/11/05 03:15:06;;;;;;;3.85;0.57;;;;;;;8.95;70.89;93246.69;6278454;22;20041;-81
2023/11/05 03:17:36;;;;;;;2.42;1.00;;;;;;;8.97;71.69;93247.22;6278206;22;20078;-81
2023/11/05 03:20:06;;;;;;;2.63;0.45;;;;;;;8.99;72.80;93232.16;6278523;22;20469;-80
2023/11/05 03:22:34;;;;;;;3.42;1.80;;;;;;;9.00;71.32;93231.09;6278367;22;20020;-81
2023/11/05 03:25:03;;;;;;;3.13;0.93;;;;;;;9.02;70.02;93234.22;6278319;22;20015;-80
2023/11/05 03:27:30;;;;;;;1.23;0.80;;;;;;;9.04;69.56;93242.53;6279065;22;20015;-81
2023/11/05 03:29:59;;;;;;;1.25;0.40;;;;;;;9.06;70.49;93231.91;6282072;22;20023;-80
2023/11/05 03:32:28;;;;;;;0.90;0.47;;;;;;;9.07;69.69;93226.47;6295877;22;20019;-80
2023/11/05 03:34:56;;;;;;;0.70;0.40;;;;;;;9.10;70.44;93227.75;6300915;22;20019;-80
2023/11/05 03:37:24;;;;;;;2.28;0.20;;;;;;;9.11;70.03;93241.53;6290973;22;20023;-80
2023/11/05 03:39:51;;;;;;;2.50;0.30;;;;;;;9.13;70.25;93229.84;6280531;22;20376;-80
2023/11/05 03:42:19;;;;;;;1.58;0.30;;;;;;;9.15;71.07;93227.78;6279552;22;20211;-80
2023/11/05 03:44:47;;;;;;;0.32;0.20;;;;;;;9.19;71.90;93228.81;6279241;22;20331;-80
2023/11/05 03:47:15;;;;;;;0.63;0.25;;;;;;;9.20;72.15;93224.41;6278765;22;20015;-80
2023/11/05 03:49:44;;;;;;;0.75;0.20;;;;;;;9.24;73.45;93220.25;6278900;22;20453;-80
2023/11/05 03:52:12;;;;;;;0.63;0.20;;;;;;;9.23;72.40;93211.69;6278503;22;20026;-80
2023/11/05 03:54:39;;;;;;;1.95;0.20;;;;;;;9.23;71.25;93216.09;6279884;22;20023;-80
2023/11/05 03:57:07;;;;;;;4.15;0.98;;;;;;;9.24;70.58;93204.66;6298282;22;20031;-80
2023/11/05 03:59:35;;;;;;;2.03;0.32;;;;;;;9.25;71.38;93211.44;6280432;22;20019;-81
2023/11/05 04:02:02;;;;;;;1.48;0.20;;;;;;;9.27;71.04;93209.31;6278059;22;20012;-80
2023/11/05 04:04:30;;;;;;;1.27;0.30;;;;;;;9.26;71.73;93205.19;6278138;22;20054;-80
2023/11/05 04:07:03;;;;;;;0.95;0.20;;;;;;;9.23;70.17;93210.91;6279268;22;20361;-80
2023/11/05 04:09:31;;;;;;;;;;;;;;;9.22;69.08;93204.13;6278837;22;20015;-80
2023/11/05 04:11:58;;;;;;;1.85;0.30;;;;;;;9.18;69.47;93205.66;6278493;22;19955;-81
2023/11/05 04:14:26;;;;;;;0.57;0.35;;;;;;;9.17;68.82;93211.91;6277891;22;20020;-80
2023/11/05 04:16:55;;;;;;;0.93;0.22;;;;;;;9.15;70.66;93217.38;6277993;22;20019;-80
2023/11/05 04:19:23;;;;;;;0.32;0.30;;;;;;;9.13;70.00;93210.88;6278523;22;20023;-80
2023/11/05 04:21:50;;;;;;;1.80;0.20;;;;;;;9.11;71.36;93192.13;6277831;22;20043;-82
2023/11/05 04:24:19;;;;;;;0.70;0.50;;;;;;;9.07;71.00;93192.66;6277916;22;20020;-80
2023/11/05 04:26:47;;;;;;;0.35;0.35;;;;;;;9.07;71.46;93195.25;6278010;22;20071;-81
2023/11/05 04:29:15;;;;;;;1.75;0.40;;;;;;;9.04;70.57;93194.97;6278096;22;20031;-80
2023/11/05 04:31:42;;;;;;;0.95;0.30;;;;;;;9.02;70.51;93192.63;6278177;22;20023;-81
2023/11/05 04:34:10;;;;;;;0.77;0.35;;;;;;;9.01;71.21;93183.28;6277742;22;20043;-80
2023/11/05 04:36:39;;;;;;;0.63;0.30;;;;;;;9.00;69.72;93178.31;6277733;22;20077;-80
2023/11/05 04:39:08;;;;;;;0.82;0.30;;;;;;;8.98;70.04;93168.19;6278351;22;20019;-81
2023/11/05 04:41:37;;;;;;;1.67;0.57;;;;;;;8.97;70.39;93171.06;6277901;22;20037;-80
2023/11/05 04:44:05;;;;;;;1.85;1.17;;;;;;;8.97;69.91;93171.06;6278128;22;20033;-80
2023/11/05 04:46:39;;;;;;;1.25;0.15;;;;;;;8.95;69.71;93171.28;6278983;22;20012;-80
2023/11/05 04:49:06;;;;;;;0.82;0.20;;;;;;;8.93;69.42;93178.56;6280027;22;20011;-80
2023/11/05 04:51:34;;;;;;;0.47;0.30;;;;;;;8.94;70.79;93174.91;6280582;22;20523;-80
2023/11/05 04:54:01;;;;;;;1.58;0.28;;;;;;;8.93;71.09;93178.56;6279711;22;20016;-80
2023/11/05 04:56:29;;;;;;;1.02;0.30;;;;;;;8.90;69.61;93188.69;6279757;22;20035;-80
2023/11/05 04:58:59;;;;;;;1.05;0.20;;;;;;;8.87;70.74;93185.56;6279525;22;20047;-80
2023/11/05 05:01:27;;;;;;;1.65;0.30;;;;;;;8.85;71.27;93181.66;6280028;22;20020;-80
2023/11/05 05:03:54;;;;;;;2.65;0.50;;;;;;;8.81;69.86;93181.41;6279594;22;20019;-80
2023/11/05 05:06:22;;;;;;;1.05;0.60;;;;;;;8.79;71.50;93174.88;6280508;22;20077;-80
2023/11/05 05:08:50;;;;;;;0.80;0.70;;;;;;;8.75;71.14;93161.63;6279900;22;20390;-80
2023/11/05 05:11:18;;;;;;;1.38;0.43;;;;;;;8.72;71.04;93167.31;6279777;22;20485;-80
2023/11/05 05:13:46;;;;;;;1.70;0.63;;;;;;;8.70;71.69;93158.19;6280206;22;20015;-81
2023/11/05 05:16:19;;;;;;;1.60;0.40;;;;;;;8.68;70.88;93165.47;6279489;22;20081;-80
2023/11/05 05:18:47;;;;;;;1.15;0.68;;;;;;;8.64;71.54;93167.81;6280013;22;20099;-80
2023/11/05 05:21:15;;;;;;;1.98;1.20;;;;;;;8.61;71.06;93174.28;6280131;22;20055;-81
2023/11/05 05:23:43;;;;;;;1.60;1.00;;;;;;;8.60;72.07;93166.75;6287622;22;20019;-80
2023/11/05 05:26:10;;;;;;;3.20;0.85;;;;;;;8.57;71.86;93173.25;6280425;22;20400;-80
2023/11/05 05:28:38;;;;;;;1.95;0.50;;;;;;;8.57;71.76;93168.03;6281507;22;20024;-81
2023/11/05 05:31:06;;;;;;;3.20;1.20;;;;;;;8.54;71.29;93152.94;6280219;22;20350;-80
2023/11/05 05:33:35;;;;;;;2.90;0.40;;;;;;;8.53;70.98;93169.59;6280615;22;20027;-80
2023/11/05 05:36:04;;;;;;;0.60;0.30;;;;;;;8.53;71.03;93182.56;6279906;22;20012;-80
2023/11/05 05:38:33;;;;;;;0.60;0.40;;;;;;;8.55;71.22;93177.09;6280163;22;20023;-81
2023/11/05 05:41:01;;;;;;;0.50;0.30;;;;;;;8.58;70.76;93184.41;6280389;22;20073;-81
2023/11/05 05:43:28;;;;;;;0.50;0.20;;;;;;;8.60;71.15;93184.94;6279782;22;20073;-80
2023/11/05 05:45:56;;;;;;;0.40;0.40;;;;;;;8.58;71.32;93192.97;6279206;22;20526;-80
2023/11/05 05:48:24;;;;;;;2.67;0.40;;;;;;;8.60;72.56;93180.50;6279362;22;20043;-81
2023/11/05 05:50:54;;;;;;;1.42;0.40;;;;;;;8.60;72.11;93184.94;6279966;22;20028;-81
2023/11/05 05:53:22;;;;;;;1.15;0.30;;;;;;;8.60;72.11;93195.31;6279478;22;20019;-80
2023/11/05 05:55:50;;;;;;;2.05;1.30;;;;;;;8.59;71.75;93189.34;6278613;22;20047;-80
2023/11/05 05:58:21;;;;;;;0.47;0.47;;;;;;;8.60;71.95;93188.31;6278290;22;20019;-81
2023/11/05 06:00:50;;;;;;;1.13;0.38;;;;;;;8.63;72.31;93189.63;6292428;22;20083;-80
2023/11/05 06:03:17;;;;;;;0.35;0.30;;;;;;;8.63;71.79;93200.78;6284476;22;20039;-80
2023/11/05 06:05:45;;;;;;;0.88;0.30;;;;;;;8.63;71.32;93190.38;6279264;22;20019;-80
2023/11/05 06:08:15;;;;;;;0.40;0.30;;;;;;;8.64;70.56;93202.38;6279003;22;20330;-80
2023/11/05 06:10:42;;;;;;;1.27;0.47;;;;;;;8.67;72.11;93195.88;6279530;22;20760;-80
2023/11/05 06:13:10;;;;;;;0.70;0.52;;;;;;;8.69;71.71;93198.22;6279562;22;20022;-81
2023/11/05 06:15:38;;;;;;;1.83;1.17;;;;;;;8.72;72.06;93202.91;6278996;22;20094;-80
2023/11/05 06:18:06;;;;;;;1.05;0.40;;;;;;;8.74;72.40;93200.84;6278769;22;20015;-80
2023/11/05 06:20:34;;;;;;;0.70;0.40;;;;;;;8.74;70.98;93200.84;6279834;22;20079;-80
2023/11/05 06:23:01;;;;;;;0.60;0.40;;;;;;;8.75;72.00;93205.00;6279099;22;20019;-80
2023/11/05 06:25:31;;;;;;;1.95;0.20;;;;;;;8.78;72.72;93212.28;6278371;22;20039;-79
2023/11/05 06:27:58;;;;;;;0.57;0.30;;;;;;;8.79;73.10;93206.06;6279998;22;20100;-80
2023/11/05 06:30:26;;;;;;;1.25;0.43;;;;;;;8.81;71.91;93211.78;6280020;22;20024;-80
2023/11/05 06:32:54;;;;;;;2.60;0.25;;;;;;;8.85;72.38;93210.25;6278922;22;20024;-80
2023/11/05 06:35:21;;;;;;;0.88;0.63;;;;;;;8.89;70.94;93221.69;6279398;22;20349;-81
2023/11/05 06:37:49;;;;;;;2.25;0.25;;;;;;;8.91;71.08;93201.44;6278658;22;20058;-80
2023/11/05 06:40:17;;;;;;;0.77;0.50;;;;;;;8.92;70.34;93213.41;6279105;22;20016;-80
2023/11/05 06:42:46;;;;;;;1.55;0.40;;;;;;;8.95;71.71;93220.69;6278902;22;20094;-81
2023/11/05 06:45:14;;;;;;;1.50;0.30;;;;;;;8.98;71.36;93216.78;6278952;22;20029;-80
2023/11/05 06:47:43;;;;;;;1.25;0.20;;;;;;;9.00;72.27;93219.91;6278948;22;20019;-80
2023/11/05 06:58:19;;;;;;;0.32;0.10;;;;;;;9.13;70.26;93229.84;6281288;22;20401;-80
2023/11/05 07:00:56;;;;;;;1.33;0.20;;;;;;;9.16;71.98;93218.94;6288567;22;20026;-80
2023/11/05 07:03:25;;;;;;;1.67;0.20;;;;;;;9.21;70.20;93221.56;6258206;23;20458;-80
2023/11/05 07:05:52;;;;;;;0.75;0.10;;;;;;;9.28;69.60;93222.09;6248272;23;20023;-78
2023/11/05 07:08:29;;;;;;;2.50;0.30;;;;;;;9.38;69.08;93226.53;6245613;23;20016;-78
2023/11/05 20:29:32;;;;;;;1.03;0.47;;;;;;;9.70;74.68;95032.91;6267944;22;20245;-82
2023/11/05 20:43:38;;;;;;;2.33;0.80;;;;;;;9.66;75.39;95055.19;6279092;22;20252;-81
2023/11/05 21:00:04;;;;;;;2.37;0.97;;;;;;;9.75;73.52;95094.78;6304387;22;20030;-79
2023/11/05 22:01:26;;;;;;;1.45;0.95;;;;;;;10.12;72.86;95172.97;6272077;22;20004;-82
